Time;durP1;ratioP1;P1;durP2;ratioP2;P2;SDS_P1;SDS_P2;PMS_P1;PMS_P2;Temp;Humidity;BMP_temperature;BMP_pressure;BME280_temperature;BME280_humidity;BME280_pressure;Samples;Min_cycle;Max_cycle;Signal;HPM_P1;HPM_P2
2022/01/21 00:02:08;;;;;;;8.52;3.85;;;3.40;94.50;;;;;;5051107;28;20221;-63
2022/01/21 00:04:36;;;;;;;6.43;2.58;;;3.30;94.00;;;;;;5051656;28;20308;-63
2022/01/21 00:07:04;;;;;;;6.47;4.25;;;3.30;94.30;;;;;;5041176;28;20246;-64
2022/01/21 00:09:31;;;;;;;8.85;4.85;;;3.30;94.40;;;;;;5049950;28;20223;-65
2022/01/21 00:11:58;;;;;;;16.42;8.40;;;3.20;94.00;;;;;;5050756;28;20222;-63
2022/01/21 00:14:27;;;;;;;28.85;10.45;;;3.20;93.80;;;;;;5047486;28;20238;-63
2022/01/21 00:16:54;;;;;;;9.77;5.97;;;3.10;94.00;;;;;;5051191;28;20222;-64
2022/01/21 00:19:23;;;;;;;10.25;7.03;;;3.10;93.90;;;;;;5051441;28;20226;-63
2022/01/21 00:30:23;;;;;;;7.20;3.58;;;3.30;93.80;;;;;;5051268;28;20699;-64
2022/01/21 00:32:50;;;;;;;10.90;5.32;;;3.30;93.50;;;;;;5047958;28;20230;-64
2022/01/21 00:35:19;;;;;;;5.15;3.75;;;3.30;93.30;;;;;;5047949;28;20241;-64
2022/01/21 00:37:46;;;;;;;5.15;2.50;;;3.30;93.40;;;;;;5040995;28;20226;-63
2022/01/21 00:40:18;;;;;;;6.80;3.50;;;3.30;93.20;;;;;;5044459;28;20236;-63
2022/01/21 00:45:29;;;;;;;8.80;4.05;;;3.30;92.80;;;;;;5050642;28;20240;-63
2022/01/21 00:47:56;;;;;;;3.60;2.33;;;3.20;92.90;;;;;;5050631;28;20556;-63
2022/01/21 00:50:23;;;;;;;4.45;3.63;;;3.20;93.00;;;;;;5047483;28;20235;-63
2022/01/21 00:52:50;;;;;;;14.63;6.72;;;3.20;93.00;;;;;;5046220;28;20697;-64
2022/01/21 00:55:18;;;;;;;4.97;2.80;;;3.20;93.20;;;;;;5050955;28;20226;-63
2022/01/21 00:57:45;;;;;;;4.30;2.85;;;3.20;93.20;;;;;;5050664;28;20223;-63
2022/01/21 01:00:13;;;;;;;8.48;2.45;;;3.20;92.90;;;;;;5050990;28;20241;-64
2022/01/21 01:02:41;;;;;;;4.80;2.95;;;3.20;92.80;;;;;;5048058;28;20241;-64
2022/01/21 01:05:09;;;;;;;12.05;8.27;;;3.20;93.10;;;;;;5051162;28;20234;-64
2022/01/21 01:07:36;;;;;;;3.67;3.38;;;3.20;93.10;;;;;;5050876;28;20243;-64
2022/01/21 01:10:04;;;;;;;6.97;4.43;;;3.10;93.10;;;;;;5051086;28;20237;-64
2022/01/21 01:12:47;;;;;;;5.40;3.08;;;3.10;93.10;;;;;;5057291;28;20236;-64
2022/01/21 01:20:43;;;;;;;27.35;16.30;;;3.10;92.80;;;;;;5034883;28;20285;-62
2022/01/21 01:23:22;;;;;;;6.15;3.03;;;3.20;93.10;;;;;;5033882;28;20255;-63
2022/01/21 01:28:35;;;;;;;8.73;2.78;;;3.10;92.50;;;;;;5028310;28;20277;-63
2022/01/21 01:31:02;;;;;;;8.93;3.38;;;3.10;92.30;;;;;;5034369;28;20235;-63
2022/01/21 01:33:35;;;;;;;24.33;10.90;;;3.10;92.40;;;;;;5031992;28;20622;-63
2022/01/21 01:36:03;;;;;;;7.45;3.55;;;3.10;92.70;;;;;;5038624;28;20223;-63
2022/01/21 01:38:48;;;;;;;2.58;2.00;;;3.00;92.70;;;;;;5033825;28;20246;-63
2022/01/21 01:41:18;;;;;;;3.08;1.80;;;3.00;92.70;;;;;;5034452;28;20253;-63
2022/01/21 01:49:28;;;;;;;8.38;4.18;;;3.00;92.80;;;;;;5033724;28;20246;-63
2022/01/21 01:51:56;;;;;;;5.57;2.58;;;3.00;93.00;;;;;;5034047;28;20239;-63
2022/01/21 01:54:22;;;;;;;4.30;2.50;;;3.00;92.80;;;;;;5034457;28;20581;-63
2022/01/21 01:56:52;;;;;;;2.08;1.88;;;3.10;93.10;;;;;;5033956;28;20226;-63
2022/01/21 01:59:20;;;;;;;5.00;2.28;;;3.10;92.70;;;;;;5041019;28;20230;-63
2022/01/21 02:01:52;;;;;;;3.90;2.33;;;3.10;92.70;;;;;;5051772;28;20623;-63
2022/01/21 02:04:20;;;;;;;24.98;16.80;;;3.10;92.90;;;;;;5054089;28;20229;-63
2022/01/21 02:06:48;;;;;;;2.85;1.50;;;3.10;92.50;;;;;;5053566;28;20226;-63
2022/01/21 02:09:15;;;;;;;7.43;2.65;;;3.10;92.40;;;;;;5054221;28;20292;-63
2022/01/21 02:11:42;;;;;;;7.93;4.03;;;3.10;92.40;;;;;;5053519;28;20227;-63
2022/01/21 02:14:13;;;;;;;5.32;2.15;;;3.10;92.40;;;;;;5053560;28;20233;-63
2022/01/21 02:17:07;;;;;;;9.68;4.40;;;3.10;92.20;;;;;;5045447;28;20314;-63
2022/01/21 02:22:28;;;;;;;3.25;2.05;;;3.10;92.30;;;;;;5043346;28;20232;-63
2022/01/21 02:24:58;;;;;;;5.93;3.15;;;3.10;92.20;;;;;;5053290;28;20222;-63
2022/01/21 02:27:26;;;;;;;3.70;1.92;;;3.00;92.30;;;;;;5051325;28;20245;-63
2022/01/21 02:29:58;;;;;;;5.32;2.70;;;3.00;92.40;;;;;;5041958;28;20298;-63
2022/01/21 02:32:25;;;;;;;4.32;2.53;;;3.00;92.50;;;;;;5046013;28;20300;-63
2022/01/21 02:34:52;;;;;;;3.92;1.95;;;3.10;92.70;;;;;;5053462;28;20548;-63
2022/01/21 02:37:22;;;;;;;4.30;1.50;;;3.10;92.60;;;;;;5053251;28;20622;-63
2022/01/21 02:39:50;;;;;;;5.85;1.70;;;3.10;92.60;;;;;;5040764;28;20577;-63
2022/01/21 02:42:18;;;;;;;3.15;1.48;;;3.10;92.30;;;;;;5052763;28;20701;-63
2022/01/21 02:44:45;;;;;;;3.78;1.63;;;3.10;92.30;;;;;;5053608;28;20222;-63
2022/01/21 02:47:12;;;;;;;2.28;1.33;;;3.10;92.40;;;;;;5053122;28;20227;-63
2022/01/21 02:49:39;;;;;;;7.10;2.40;;;3.10;92.30;;;;;;5052973;28;20226;-63
2022/01/21 02:52:07;;;;;;;2.70;1.90;;;3.10;92.50;;;;;;5052997;28;20241;-63
2022/01/21 02:54:35;;;;;;;7.70;2.97;;;3.20;92.20;;;;;;5052904;28;20235;-64
2022/01/21 02:57:04;;;;;;;4.53;2.13;;;3.10;92.00;;;;;;5053236;28;20218;-63
2022/01/21 02:59:32;;;;;;;4.53;2.40;;;3.10;92.10;;;;;;5052606;28;20222;-63
2022/01/21 03:01:59;;;;;;;2.35;1.52;;;3.10;92.10;;;;;;5053055;28;20245;-64
2022/01/21 03:04:34;;;;;;;2.20;1.60;;;3.10;92.00;;;;;;5052773;28;20289;-63
2022/01/21 03:07:01;;;;;;;6.70;2.40;;;3.00;91.90;;;;;;5052863;28;20228;-64
2022/01/21 03:09:28;;;;;;;2.83;1.73;;;2.90;92.00;;;;;;5052515;28;20237;-65
2022/01/21 03:11:54;;;;;;;8.43;3.50;;;2.90;92.20;;;;;;5052843;28;20238;-64
2022/01/21 03:14:23;;;;;;;6.75;2.92;;;2.90;92.00;;;;;;5052554;28;20570;-64
2022/01/21 03:16:49;;;;;;;8.90;3.33;;;2.90;92.40;;;;;;5048787;28;20222;-64
2022/01/21 03:19:16;;;;;;;5.07;2.67;;;2.90;92.10;;;;;;5047110;28;20228;-65
2022/01/21 03:21:43;;;;;;;6.32;2.85;;;2.90;92.30;;;;;;5050460;28;20254;-64
2022/01/21 03:24:10;;;;;;;4.82;3.83;;;2.90;92.00;;;;;;5052680;28;20252;-64
2022/01/21 03:26:37;;;;;;;4.13;2.70;;;2.90;92.10;;;;;;5050022;28;20237;-63
2022/01/21 03:29:05;;;;;;;7.05;2.55;;;2.90;92.40;;;;;;5052603;28;20226;-64
2022/01/21 03:31:34;;;;;;;4.13;2.80;;;2.90;92.40;;;;;;5039271;28;20244;-64
2022/01/21 03:34:01;;;;;;;3.83;2.10;;;2.90;92.30;;;;;;5058153;28;20695;-64
2022/01/21 03:36:29;;;;;;;4.28;2.15;;;2.90;92.20;;;;;;5050960;28;20224;-64
2022/01/21 03:38:56;;;;;;;5.53;1.95;;;2.90;92.20;;;;;;5041318;28;20237;-64
2022/01/21 03:41:23;;;;;;;6.03;2.30;;;2.80;92.10;;;;;;5051883;28;20252;-64
2022/01/21 03:43:50;;;;;;;6.65;2.33;;;2.90;92.20;;;;;;5052194;28;20228;-64
2022/01/21 03:46:17;;;;;;;5.65;3.45;;;2.90;92.10;;;;;;5052053;28;20230;-64
2022/01/21 03:48:48;;;;;;;4.75;2.10;;;2.90;92.20;;;;;;5051714;28;20941;-64
2022/01/21 03:51:15;;;;;;;5.18;2.50;;;2.90;92.20;;;;;;5052273;28;20234;-65
2022/01/21 03:53:44;;;;;;;4.13;2.65;;;2.90;92.00;;;;;;5051551;28;20233;-65
2022/01/21 03:56:14;;;;;;;4.10;2.90;;;2.80;91.90;;;;;;5052221;28;20622;-64
2022/01/21 03:58:40;;;;;;;8.10;2.42;;;2.80;91.80;;;;;;5051571;28;20261;-64
2022/01/21 04:01:08;;;;;;;5.28;2.60;;;2.80;91.60;;;;;;5051930;28;20235;-64
2022/01/21 04:03:35;;;;;;;5.50;2.70;;;2.80;91.70;;;;;;5051624;28;20226;-65
2022/01/21 04:06:04;;;;;;;6.78;2.10;;;2.70;91.80;;;;;;5051904;28;20223;-65
2022/01/21 04:08:31;;;;;;;3.53;1.48;;;2.70;91.70;;;;;;5051313;28;20230;-64
2022/01/21 04:10:58;;;;;;;4.80;1.65;;;2.70;91.60;;;;;;5051989;28;20221;-64
2022/01/21 04:13:26;;;;;;;6.90;1.90;;;2.70;91.90;;;;;;5051429;28;20223;-64
2022/01/21 04:15:57;;;;;;;1.90;1.52;;;2.70;92.00;;;;;;5051812;28;20696;-64
2022/01/21 04:18:25;;;;;;;5.07;1.50;;;2.70;91.90;;;;;;5051313;28;20230;-64
2022/01/21 04:20:53;;;;;;;2.47;1.92;;;2.70;92.00;;;;;;5043877;28;20569;-65
2022/01/21 04:23:23;;;;;;;12.02;4.72;;;2.70;91.90;;;;;;5051574;28;20276;-64
2022/01/21 04:25:50;;;;;;;2.75;1.40;;;2.70;91.90;;;;;;5051313;28;20223;-65
2022/01/21 04:28:18;;;;;;;4.05;2.00;;;2.70;91.50;;;;;;5051337;28;20233;-65
2022/01/21 04:30:45;;;;;;;4.10;1.90;;;2.70;91.30;;;;;;5051223;28;20743;-65
2022/01/21 04:33:12;;;;;;;4.43;1.85;;;2.70;91.30;;;;;;5051715;28;20242;-65
2022/01/21 04:35:39;;;;;;;3.70;1.75;;;2.60;91.10;;;;;;5051299;28;20225;-65
2022/01/21 04:38:09;;;;;;;2.65;1.10;;;2.60;91.10;;;;;;5051313;28;20237;-65
2022/01/21 04:40:44;;;;;;;3.38;1.40;;;2.60;91.20;;;;;;5051283;28;20279;-65
2022/01/21 04:48:39;;;;;;;3.10;2.40;;;2.50;91.10;;;;;;5055145;28;20231;-65
2022/01/21 04:51:15;;;;;;;7.10;3.38;;;2.50;91.10;;;;;;5055304;28;20233;-65
2022/01/21 04:53:43;;;;;;;7.18;3.25;;;2.50;91.10;;;;;;5054764;28;20575;-65
2022/01/21 04:56:12;;;;;;;4.35;2.40;;;2.50;91.20;;;;;;5055246;28;20701;-64
2022/01/21 04:58:39;;;;;;;6.80;1.92;;;2.50;91.00;;;;;;5054507;28;20233;-65
2022/01/21 05:01:06;;;;;;;5.85;2.08;;;2.50;91.20;;;;;;5055003;28;20234;-64
2022/01/21 05:03:35;;;;;;;3.83;2.13;;;2.60;91.10;;;;;;5054825;28;20226;-64
2022/01/21 05:06:02;;;;;;;3.75;2.22;;;2.50;90.90;;;;;;5055145;28;20309;-65
2022/01/21 05:08:37;;;;;;;4.82;1.95;;;2.50;90.60;;;;;;5054997;28;20296;-64
2022/01/21 05:11:04;;;;;;;2.80;1.90;;;2.50;90.80;;;;;;5055088;28;20787;-64
2022/01/21 05:13:38;;;;;;;4.72;2.20;;;2.60;90.90;;;;;;5055085;28;20242;-64
2022/01/21 05:16:09;;;;;;;2.35;2.13;;;2.60;90.90;;;;;;5048708;28;20226;-64
2022/01/21 05:18:36;;;;;;;8.35;2.28;;;2.50;90.90;;;;;;5055078;28;20770;-64
2022/01/21 05:21:03;;;;;;;2.85;2.22;;;2.50;90.90;;;;;;5046899;28;20228;-64
2022/01/21 05:23:30;;;;;;;5.85;2.50;;;2.60;90.70;;;;;;5054781;28;20244;-64
2022/01/21 05:25:57;;;;;;;5.38;2.20;;;2.50;90.80;;;;;;5052191;28;20680;-64
2022/01/21 05:28:24;;;;;;;8.15;2.38;;;2.50;90.90;;;;;;5054518;28;20225;-64
2022/01/21 05:30:52;;;;;;;3.95;2.17;;;2.50;90.70;;;;;;5054266;28;20234;-64
2022/01/21 05:33:19;;;;;;;4.40;2.92;;;2.50;90.90;;;;;;5041841;28;20226;-64
2022/01/21 05:35:45;;;;;;;5.95;2.70;;;2.40;90.60;;;;;;5054145;28;20228;-64
2022/01/21 05:38:12;;;;;;;5.15;2.70;;;2.50;90.70;;;;;;5054382;28;20236;-64
2022/01/21 05:40:40;;;;;;;2.30;1.80;;;2.40;90.60;;;;;;5054629;28;20230;-64
2022/01/21 05:43:07;;;;;;;5.13;1.98;;;2.40;90.90;;;;;;5054526;28;20955;-64
2022/01/21 05:48:20;;;;;;;6.45;1.92;;;2.40;90.70;;;;;;5054794;28;20555;-64
2022/01/21 05:50:47;;;;;;;8.70;3.90;;;2.40;90.80;;;;;;5053927;28;20236;-64
2022/01/21 05:53:14;;;;;;;4.20;2.47;;;2.30;91.00;;;;;;5054392;28;20248;-64
2022/01/21 05:55:42;;;;;;;11.23;5.70;;;2.30;91.20;;;;;;5053998;28;20223;-64
2022/01/21 05:58:11;;;;;;;7.80;4.43;;;2.30;91.10;;;;;;5053602;28;20237;-64
2022/01/21 06:00:38;;;;;;;8.65;3.03;;;2.30;91.20;;;;;;5053176;28;20224;-64
2022/01/21 06:03:05;;;;;;;4.78;2.25;;;2.30;91.10;;;;;;5054348;28;20231;-64
2022/01/21 06:05:34;;;;;;;8.30;3.38;;;2.40;90.80;;;;;;5053480;28;20222;-64
2022/01/21 06:08:02;;;;;;;4.43;2.70;;;2.40;91.00;;;;;;5054070;28;20238;-64
2022/01/21 06:10:29;;;;;;;6.55;2.42;;;2.40;90.90;;;;;;5053536;28;20233;-65
2022/01/21 06:12:57;;;;;;;5.45;3.60;;;2.40;90.80;;;;;;5054144;28;20551;-64
2022/01/21 06:15:24;;;;;;;6.85;3.58;;;2.40;91.10;;;;;;5053924;28;20576;-64
2022/01/21 06:17:51;;;;;;;3.53;2.70;;;2.40;91.20;;;;;;5053790;28;20735;-64
2022/01/21 06:20:18;;;;;;;4.15;3.45;;;2.40;91.30;;;;;;5045646;28;20234;-64
2022/01/21 06:22:47;;;;;;;9.00;3.92;;;2.40;91.00;;;;;;5053270;28;20237;-64
2022/01/21 06:25:14;;;;;;;7.50;3.22;;;2.40;90.80;;;;;;5040719;28;20230;-64
2022/01/21 06:27:41;;;;;;;8.10;3.78;;;2.40;90.90;;;;;;5051220;28;20226;-64
2022/01/21 06:30:09;;;;;;;17.95;7.25;;;2.40;91.10;;;;;;5052311;28;20230;-64
2022/01/21 06:32:36;;;;;;;16.73;6.63;;;2.40;91.20;;;;;;5051839;28;20226;-64
2022/01/21 06:35:03;;;;;;;9.15;7.60;;;2.30;91.30;;;;;;5053882;28;20228;-64
2022/01/21 06:37:31;;;;;;;14.90;5.43;;;2.30;91.70;;;;;;5053137;28;20225;-64
2022/01/21 06:39:59;;;;;;;5.45;4.30;;;2.40;91.70;;;;;;5053811;28;20283;-64
2022/01/21 06:42:28;;;;;;;5.90;3.80;;;2.30;91.50;;;;;;5053379;28;20225;-64
2022/01/21 06:44:55;;;;;;;8.05;4.60;;;2.30;91.70;;;;;;5053526;28;20971;-64
2022/01/21 06:47:22;;;;;;;7.20;5.85;;;2.40;91.40;;;;;;5053301;28;20230;-64
2022/01/21 06:49:49;;;;;;;6.60;4.97;;;2.40;91.40;;;;;;5053076;28;20243;-64
2022/01/21 06:52:15;;;;;;;6.30;4.45;;;2.40;91.60;;;;;;5046942;28;20223;-64
2022/01/21 06:54:43;;;;;;;12.55;5.10;;;2.40;91.60;;;;;;5053596;28;20241;-64
2022/01/21 06:57:11;;;;;;;13.32;4.90;;;2.40;91.60;;;;;;5053593;28;20226;-64
2022/01/21 06:59:37;;;;;;;7.55;5.13;;;2.40;91.70;;;;;;5053348;28;20241;-64
2022/01/21 07:02:05;;;;;;;9.63;4.82;;;2.50;91.70;;;;;;5053628;28;20228;-64
2022/01/21 07:04:33;;;;;;;6.28;3.28;;;2.50;91.90;;;;;;5053374;28;20232;-64
2022/01/21 07:07:00;;;;;;;9.52;6.13;;;2.50;91.70;;;;;;5053456;28;20237;-65
2022/01/21 07:09:27;;;;;;;7.30;3.60;;;2.40;91.90;;;;;;5053018;28;20237;-64
2022/01/21 07:11:54;;;;;;;6.25;3.03;;;2.40;92.10;;;;;;5052913;28;20562;-64
2022/01/21 07:14:23;;;;;;;5.50;4.05;;;2.50;92.20;;;;;;5053671;28;20690;-64
2022/01/21 07:16:51;;;;;;;5.93;3.17;;;2.50;92.20;;;;;;5040351;28;20238;-64
2022/01/21 07:19:18;;;;;;;9.23;4.85;;;2.50;92.20;;;;;;5052933;28;20300;-64
2022/01/21 07:21:45;;;;;;;9.43;7.50;;;2.50;92.10;;;;;;5052922;28;20230;-64
2022/01/21 07:24:12;;;;;;;9.65;5.30;;;2.50;92.20;;;;;;5053303;28;20231;-65
2022/01/21 07:26:39;;;;;;;11.52;4.45;;;2.50;92.40;;;;;;5047138;28;20315;-64
2022/01/21 07:29:05;;;;;;;7.22;4.70;;;2.50;92.50;;;;;;5053412;28;20217;-65
2022/01/21 07:31:34;;;;;;;8.07;5.00;;;2.50;92.50;;;;;;5053096;28;20245;-65
2022/01/21 07:34:04;;;;;;;7.68;4.50;;;2.50;92.40;;;;;;5052847;28;20920;-65
2022/01/21 07:36:31;;;;;;;12.75;5.05;;;2.60;92.50;;;;;;5051702;28;20571;-64
2022/01/21 07:38:58;;;;;;;8.85;4.72;;;2.60;92.30;;;;;;5052681;28;20284;-65
2022/01/21 07:41:25;;;;;;;9.00;4.22;;;2.50;92.60;;;;;;5052794;28;20240;-65
2022/01/21 07:43:53;;;;;;;5.55;3.42;;;2.50;92.80;;;;;;5052690;28;20221;-65
2022/01/21 07:46:21;;;;;;;7.82;3.22;;;2.50;92.90;;;;;;5052870;28;20734;-64
2022/01/21 07:48:49;;;;;;;5.68;3.00;;;2.50;92.80;;;;;;5052280;28;20629;-65
2022/01/21 07:51:16;;;;;;;13.30;4.03;;;2.50;93.00;;;;;;5052722;28;20234;-65
2022/01/21 07:53:43;;;;;;;9.32;4.90;;;2.50;93.20;;;;;;5052277;28;20223;-65
2022/01/21 07:56:10;;;;;;;10.48;4.72;;;2.50;93.20;;;;;;5052230;28;20723;-65
2022/01/21 07:58:37;;;;;;;8.32;4.18;;;2.50;93.30;;;;;;5052749;28;20228;-65
2022/01/21 08:01:03;;;;;;;8.77;5.55;;;2.50;93.20;;;;;;5052194;28;20473;-65
2022/01/21 08:03:30;;;;;;;8.35;3.97;;;2.50;93.30;;;;;;5052648;28;20227;-64
2022/01/21 08:05:59;;;;;;;7.57;3.40;;;2.50;93.40;;;;;;5052268;28;20238;-65
2022/01/21 08:08:26;;;;;;;12.40;3.38;;;2.60;93.50;;;;;;5052332;28;20800;-65
2022/01/21 08:10:53;;;;;;;9.80;4.32;;;2.60;93.30;;;;;;5052178;28;20234;-64
2022/01/21 08:13:20;;;;;;;5.85;3.10;;;2.60;93.50;;;;;;5052522;28;20233;-65
2022/01/21 08:15:47;;;;;;;5.70;2.90;;;2.60;93.40;;;;;;5044573;28;20234;-64
2022/01/21 08:18:15;;;;;;;5.55;3.90;;;2.60;93.60;;;;;;5047863;28;20237;-65
2022/01/21 08:20:42;;;;;;;6.50;3.92;;;2.60;93.60;;;;;;5051445;28;20244;-65
2022/01/21 08:23:11;;;;;;;12.13;5.50;;;2.60;93.70;;;;;;5052263;28;20229;-64
2022/01/21 08:25:38;;;;;;;11.13;5.20;;;2.60;94.00;;;;;;5052393;28;20230;-64
2022/01/21 08:28:06;;;;;;;11.63;6.53;;;2.60;94.00;;;;;;5051824;28;20271;-65
2022/01/21 08:30:33;;;;;;;11.43;6.63;;;2.50;94.20;;;;;;5052338;28;20226;-65
2022/01/21 08:33:00;;;;;;;8.70;4.50;;;2.60;94.40;;;;;;5051921;28;20237;-65
2022/01/21 08:35:28;;;;;;;8.23;4.45;;;2.60;94.10;;;;;;5054025;28;20234;-65
2022/01/21 08:37:55;;;;;;;7.38;5.13;;;2.60;94.10;;;;;;5051769;28;20237;-64
2022/01/21 08:40:25;;;;;;;7.60;4.40;;;2.60;94.50;;;;;;5052381;28;20230;-64
2022/01/21 08:42:52;;;;;;;7.15;3.30;;;2.60;94.60;;;;;;5051768;28;20225;-64
2022/01/21 08:45:19;;;;;;;8.77;3.80;;;2.70;94.60;;;;;;5052234;28;20221;-65
2022/01/21 08:47:46;;;;;;;6.55;3.35;;;2.70;94.70;;;;;;5051596;28;20226;-65
2022/01/21 08:50:17;;;;;;;6.28;3.70;;;2.70;94.50;;;;;;5052123;28;20225;-65
2022/01/21 08:52:45;;;;;;;9.48;4.10;;;2.70;94.80;;;;;;5051570;28;20226;-65
2022/01/21 08:55:14;;;;;;;8.68;3.38;;;2.80;94.70;;;;;;5052268;28;20562;-65
2022/01/21 08:57:44;;;;;;;16.42;4.40;;;2.70;94.70;;;;;;5052031;28;20225;-65
2022/01/21 09:00:13;;;;;;;10.77;4.88;;;2.70;95.00;;;;;;5051479;28;20237;-65
2022/01/21 09:02:40;;;;;;;5.18;3.10;;;2.80;94.90;;;;;;5052137;28;20229;-64
2022/01/21 09:05:08;;;;;;;6.60;4.20;;;2.80;94.90;;;;;;5051457;28;20248;-64
2022/01/21 09:07:34;;;;;;;8.88;3.50;;;2.90;94.90;;;;;;5051856;28;20226;-64
2022/01/21 09:10:02;;;;;;;12.98;6.53;;;2.90;95.00;;;;;;5051357;28;20237;-64
2022/01/21 09:12:29;;;;;;;7.10;3.45;;;2.90;95.30;;;;;;5051976;28;20239;-64
2022/01/21 09:14:57;;;;;;;9.88;3.50;;;2.80;95.50;;;;;;5050728;28;20220;-64
2022/01/21 09:17:24;;;;;;;7.68;3.33;;;2.90;95.30;;;;;;5040193;28;20218;-64
2022/01/21 09:19:51;;;;;;;8.43;4.15;;;2.90;95.10;;;;;;5051190;28;20245;-64
2022/01/21 09:22:18;;;;;;;5.43;3.10;;;2.90;95.40;;;;;;5051927;28;20234;-65
2022/01/21 09:24:45;;;;;;;7.70;3.72;;;3.00;95.50;;;;;;5051822;28;20222;-64
2022/01/21 09:27:12;;;;;;;5.10;2.88;;;3.00;95.30;;;;;;5045278;28;20218;-64
2022/01/21 09:29:41;;;;;;;6.93;3.10;;;3.00;95.20;;;;;;5051669;28;20227;-65
2022/01/21 09:32:10;;;;;;;15.20;4.13;;;3.00;95.50;;;;;;5051461;28;20786;-65
2022/01/21 09:34:37;;;;;;;8.10;3.25;;;3.00;95.40;;;;;;5054398;28;20221;-64
2022/01/21 09:37:05;;;;;;;12.32;4.70;;;3.10;95.60;;;;;;5054823;28;20222;-65
2022/01/21 09:39:32;;;;;;;8.85;3.22;;;3.10;95.60;;;;;;5055261;28;20225;-65
2022/01/21 09:42:01;;;;;;;6.72;3.58;;;3.10;95.70;;;;;;5054908;28;20245;-64
2022/01/21 09:44:29;;;;;;;6.88;3.22;;;3.10;95.60;;;;;;5055287;28;20219;-63
2022/01/21 09:46:58;;;;;;;4.05;3.17;;;3.10;95.50;;;;;;5054645;28;20226;-66
2022/01/21 09:49:27;;;;;;;8.27;3.95;;;3.20;95.80;;;;;;5054998;28;20238;-64
2022/01/21 09:51:55;;;;;;;8.00;2.72;;;3.20;95.60;;;;;;5054654;28;20226;-64
2022/01/21 09:54:23;;;;;;;10.60;2.88;;;3.20;95.30;;;;;;5053986;28;20224;-64
2022/01/21 09:56:53;;;;;;;8.52;3.25;;;3.40;95.50;;;;;;5054787;28;20260;-64
2022/01/21 09:59:21;;;;;;;6.82;3.90;;;3.30;95.40;;;;;;5061018;28;20222;-65
2022/01/21 10:01:50;;;;;;;5.05;3.63;;;3.30;95.50;;;;;;5054976;28;20237;-65
2022/01/21 10:04:19;;;;;;;5.07;3.63;;;3.40;95.70;;;;;;5054635;28;20233;-64
2022/01/21 10:06:47;;;;;;;7.65;3.10;;;3.50;95.80;;;;;;5054761;28;20227;-65
2022/01/21 10:09:16;;;;;;;10.98;4.22;;;3.60;95.80;;;;;;5054296;28;20230;-64
2022/01/21 10:11:48;;;;;;;10.23;4.30;;;3.60;95.80;;;;;;5054787;28;20244;-65
2022/01/21 10:14:15;;;;;;;8.73;4.35;;;3.60;95.60;;;;;;5054218;28;20243;-65
2022/01/21 10:16:43;;;;;;;11.63;4.07;;;3.70;95.70;;;;;;5054893;28;20567;-65
2022/01/21 10:19:11;;;;;;;8.95;3.80;;;3.80;95.80;;;;;;5054176;28;20222;-65
2022/01/21 10:21:42;;;;;;;5.40;3.00;;;3.80;95.60;;;;;;5054379;28;20232;-65
2022/01/21 10:24:13;;;;;;;5.40;2.78;;;3.90;95.60;;;;;;5054114;28;20247;-65
2022/01/21 10:26:49;;;;;;;10.52;3.45;;;3.90;95.50;;;;;;5054506;28;20226;-65
2022/01/21 10:29:16;;;;;;;8.13;4.10;;;3.90;95.30;;;;;;5041562;28;20253;-64
2022/01/21 10:31:55;;;;;;;4.25;2.80;;;4.00;95.30;;;;;;5054231;28;20226;-64
2022/01/21 10:34:27;;;;;;;7.30;2.92;;;4.00;95.40;;;;;;5037441;28;20213;-64
2022/01/21 10:36:58;;;;;;;6.60;3.22;;;4.00;95.40;;;;;;5054202;28;20223;-64
2022/01/21 10:39:31;;;;;;;7.97;5.50;;;4.10;95.20;;;;;;5054086;28;20571;-65
2022/01/21 10:42:00;;;;;;;8.05;5.35;;;4.10;95.20;;;;;;5053989;28;20298;-65
2022/01/21 10:44:30;;;;;;;5.32;3.40;;;4.20;95.70;;;;;;5051312;28;20223;-65
2022/01/21 10:47:06;;;;;;;5.10;3.70;;;4.20;95.80;;;;;;5049481;28;20222;-64
2022/01/21 10:49:33;;;;;;;6.72;2.65;;;4.30;95.70;;;;;;5053475;28;20224;-65
2022/01/21 10:52:00;;;;;;;5.82;3.65;;;4.30;95.50;;;;;;5053875;28;20216;-65
2022/01/21 10:54:30;;;;;;;5.28;3.50;;;4.40;95.10;;;;;;5053189;28;20549;-65
2022/01/21 10:57:09;;;;;;;6.22;2.95;;;4.40;94.90;;;;;;5053943;28;20610;-65
2022/01/21 10:59:55;;;;;;;6.70;3.40;;;4.40;94.70;;;;;;5058941;28;20245;-65
2022/01/21 11:02:34;;;;;;;13.18;4.07;;;4.40;94.90;;;;;;5046425;28;20223;-64
2022/01/21 11:05:05;;;;;;;2.90;2.28;;;4.40;95.00;;;;;;5053750;28;20218;-64
2022/01/21 11:07:45;;;;;;;7.53;2.40;;;4.50;94.90;;;;;;5053085;28;20236;-64
2022/01/21 11:10:44;;;;;;;7.75;3.22;;;4.50;94.90;;;;;;5053411;28;20227;-65
2022/01/21 11:13:32;;;;;;;3.67;2.28;;;4.60;94.80;;;;;;5043308;28;20230;-64
2022/01/21 11:16:05;;;;;;;6.63;3.28;;;4.60;94.80;;;;;;5053359;28;20280;-65
2022/01/21 11:18:33;;;;;;;10.85;3.35;;;4.60;95.00;;;;;;5053414;28;20232;-65
2022/01/21 11:21:07;;;;;;;6.30;2.88;;;4.60;95.00;;;;;;5048523;28;20278;-65
2022/01/21 11:23:35;;;;;;;9.20;3.10;;;4.70;95.10;;;;;;5053261;28;20225;-64
2022/01/21 11:26:09;;;;;;;7.20;2.78;;;4.70;94.90;;;;;;5048438;28;20222;-64
2022/01/21 11:28:40;;;;;;;7.30;3.58;;;4.70;94.60;;;;;;5048865;28;20578;-64
2022/01/21 11:31:09;;;;;;;3.15;2.35;;;4.70;94.60;;;;;;5052724;28;20641;-64
2022/01/21 11:33:36;;;;;;;8.15;2.47;;;4.80;94.60;;;;;;5053264;28;20678;-64
2022/01/21 11:36:04;;;;;;;3.70;2.80;;;4.80;94.10;;;;;;5044669;28;20261;-64
2022/01/21 11:38:34;;;;;;;4.22;2.70;;;4.80;93.40;;;;;;5051445;28;20227;-64
2022/01/21 11:41:03;;;;;;;10.73;3.88;;;4.80;93.20;;;;;;5052596;28;20228;-64
2022/01/21 11:43:33;;;;;;;6.00;3.20;;;4.80;93.20;;;;;;5052960;28;20233;-64
2022/01/21 11:46:19;;;;;;;6.90;3.15;;;4.80;93.10;;;;;;5051341;28;20281;-64
2022/01/21 11:48:52;;;;;;;3.60;2.60;;;4.80;93.20;;;;;;5044963;28;20768;-64
2022/01/21 11:51:26;;;;;;;8.15;3.83;;;4.90;92.70;;;;;;5052257;28;20235;-64
2022/01/21 11:53:54;;;;;;;6.28;2.70;;;4.90;92.50;;;;;;5053836;28;20224;-64
2022/01/21 11:56:35;;;;;;;4.45;2.75;;;4.90;92.70;;;;;;5051647;28;20319;-64
2022/01/21 11:59:11;;;;;;;7.15;3.80;;;5.00;92.60;;;;;;5057500;28;20573;-64
2022/01/21 12:01:46;;;;;;;4.25;2.45;;;5.00;92.40;;;;;;5049096;28;20349;-65
2022/01/21 12:04:13;;;;;;;8.35;3.08;;;5.00;92.10;;;;;;5052047;28;20285;-64
2022/01/21 12:06:40;;;;;;;6.10;3.22;;;5.00;92.10;;;;;;5042854;28;20228;-64
2022/01/21 12:09:09;;;;;;;4.53;3.00;;;5.00;92.00;;;;;;5051942;28;20235;-63
2022/01/21 12:11:38;;;;;;;4.35;2.83;;;5.00;92.20;;;;;;5050974;28;20739;-64
2022/01/21 12:14:44;;;;;;;10.30;5.10;;;5.00;92.20;;;;;;5051325;28;20224;-64
2022/01/21 12:17:19;;;;;;;7.03;3.78;;;5.10;92.00;;;;;;5049088;28;20228;-65
2022/01/21 12:19:46;;;;;;;6.43;3.33;;;5.10;91.90;;;;;;5053552;28;20689;-64
2022/01/21 12:22:16;;;;;;;8.48;4.13;;;5.10;92.00;;;;;;5051911;28;20679;-63
2022/01/21 12:24:55;;;;;;;7.32;3.78;;;5.10;92.10;;;;;;5052147;28;20217;-64
2022/01/21 12:27:25;;;;;;;6.97;3.70;;;5.20;91.50;;;;;;5041182;28;20227;-64
2022/01/21 12:30:26;;;;;;;6.50;3.00;;;5.20;91.10;;;;;;5052386;28;20225;-64
2022/01/21 12:32:56;;;;;;;4.97;3.10;;;5.10;90.60;;;;;;5042902;28;20238;-64
2022/01/21 12:35:23;;;;;;;10.10;2.75;;;5.10;90.40;;;;;;5052201;28;20275;-64
2022/01/21 12:40:55;;;;;;;13.25;8.57;;;5.20;90.10;;;;;;5047739;28;20284;-64
2022/01/21 12:43:46;;;;;;;7.53;4.75;;;5.20;90.00;;;;;;5052088;28;20700;-64
2022/01/21 12:46:16;;;;;;;7.18;3.85;;;5.30;90.00;;;;;;5039012;28;20220;-64
2022/01/21 12:48:44;;;;;;;4.68;3.50;;;5.30;89.90;;;;;;5045976;28;20228;-64
2022/01/21 12:51:18;;;;;;;3.40;2.50;;;5.30;90.30;;;;;;5051486;28;20249;-64
2022/01/21 12:56:42;;;;;;;5.55;3.25;;;5.50;90.60;;;;;;5052082;28;20232;-65
2022/01/21 12:59:15;;;;;;;4.53;3.30;;;5.50;91.20;;;;;;5051828;28;20217;-64
2022/01/21 13:01:44;;;;;;;7.70;3.70;;;5.50;90.40;;;;;;5051568;28;20252;-65
2022/01/21 13:04:19;;;;;;;8.75;4.50;;;5.40;90.40;;;;;;5052014;28;20227;-65
2022/01/21 13:06:57;;;;;;;5.22;3.58;;;5.40;90.10;;;;;;5051474;28;20227;-65
2022/01/21 13:10:02;;;;;;;4.05;2.75;;;5.40;90.30;;;;;;5054648;28;20316;-64
2022/01/21 13:12:59;;;;;;;4.45;3.30;;;5.50;90.00;;;;;;5052409;28;20228;-65
2022/01/21 13:15:37;;;;;;;10.95;3.92;;;5.40;89.30;;;;;;5042085;28;20232;-65
2022/01/21 13:18:06;;;;;;;7.55;4.35;;;5.40;88.90;;;;;;5055766;28;20294;-65
2022/01/21 13:20:35;;;;;;;5.63;3.80;;;5.40;88.70;;;;;;5054989;28;20587;-65
2022/01/21 13:23:03;;;;;;;4.50;3.00;;;5.40;88.80;;;;;;5055412;28;20571;-65
2022/01/21 13:25:31;;;;;;;3.60;2.85;;;5.40;89.30;;;;;;5055150;28;20233;-65
2022/01/21 13:28:01;;;;;;;3.92;2.70;;;5.40;88.80;;;;;;5055320;28;20229;-65
2022/01/21 13:30:31;;;;;;;6.25;3.58;;;5.40;88.60;;;;;;5054964;28;20230;-65
2022/01/21 13:33:00;;;;;;;4.63;2.92;;;5.50;88.60;;;;;;5055521;28;20656;-65
2022/01/21 13:35:29;;;;;;;2.60;2.40;;;5.50;88.40;;;;;;5054791;28;20329;-65
2022/01/21 13:38:06;;;;;;;6.10;2.75;;;5.50;88.50;;;;;;5055133;28;20243;-65
2022/01/21 13:40:36;;;;;;;5.45;3.33;;;5.60;88.60;;;;;;5044324;28;20255;-65
2022/01/21 13:43:09;;;;;;;5.88;3.00;;;5.60;88.60;;;;;;5055328;28;20239;-65
2022/01/21 13:45:36;;;;;;;4.05;3.55;;;5.60;88.80;;;;;;5054638;28;20223;-65
2022/01/21 13:48:05;;;;;;;4.45;3.17;;;5.60;89.30;;;;;;5055155;28;20232;-65
2022/01/21 13:50:34;;;;;;;7.05;3.40;;;5.60;89.40;;;;;;5054577;28;20249;-64